sensor_id;sensor_type;location;lat;lon;timestamp;P1;durP1;ratioP1;P2;durP2;ratioP2
3487;SDS011;38546;48.170;11.724;2022-10-16T00:00:54;2.20;;;2.10;;
3487;SDS011;38546;48.170;11.724;2022-10-16T00:03:43;2.83;;;2.63;;
3487;SDS011;38546;48.170;11.724;2022-10-16T00:06:34;3.00;;;2.80;;
3487;SDS011;38546;48.170;11.724;2022-10-16T00:09:23;2.50;;;2.40;;
3487;SDS011;38546;48.170;11.724;2022-10-16T00:12:12;2.20;;;2.10;;
3487;SDS011;38546;48.170;11.724;2022-10-16T00:15:02;2.43;;;2.33;;
3487;SDS011;38546;48.170;11.724;2022-10-16T00:17:52;2.43;;;2.20;;
3487;SDS011;38546;48.170;11.724;2022-10-16T00:20:41;2.43;;;2.23;;
3487;SDS011;38546;48.170;11.724;2022-10-16T00:23:32;2.00;;;1.90;;
3487;SDS011;38546;48.170;11.724;2022-10-16T00:26:22;4.33;;;2.53;;
3487;SDS011;38546;48.170;11.724;2022-10-16T00:29:11;2.23;;;2.13;;
3487;SDS011;38546;48.170;11.724;2022-10-16T00:32:01;2.47;;;2.30;;
3487;SDS011;38546;48.170;11.724;2022-10-16T00:34:51;1.97;;;1.87;;
3487;SDS011;38546;48.170;11.724;2022-10-16T00:37:42;2.57;;;2.40;;
3487;SDS011;38546;48.170;11.724;2022-10-16T00:40:32;2.20;;;2.10;;
3487;SDS011;38546;48.170;11.724;2022-10-16T00:43:39;3.10;;;2.00;;
3487;SDS011;38546;48.170;11.724;2022-10-16T00:46:43;2.70;;;2.20;;
3487;SDS011;38546;48.170;11.724;2022-10-16T00:49:32;2.80;;;2.60;;
3487;SDS011;38546;48.170;11.724;2022-10-16T00:52:22;2.60;;;2.50;;
3487;SDS011;38546;48.170;11.724;2022-10-16T00:55:11;2.23;;;2.13;;
3487;SDS011;38546;48.170;11.724;2022-10-16T00:58:01;2.50;;;1.93;;
3487;SDS011;38546;48.170;11.724;2022-10-16T01:00:51;2.10;;;2.00;;
3487;SDS011;38546;48.170;11.724;2022-10-16T01:03:40;1.97;;;1.87;;
3487;SDS011;38546;48.170;11.724;2022-10-16T01:11:20;2.27;;;2.17;;
3487;SDS011;38546;48.170;11.724;2022-10-16T01:14:46;1.80;;;1.70;;
3487;SDS011;38546;48.170;11.724;2022-10-16T01:17:45;2.07;;;1.97;;
3487;SDS011;38546;48.170;11.724;2022-10-16T01:24:22;2.87;;;2.30;;
3487;SDS011;38546;48.170;11.724;2022-10-16T01:27:27;3.00;;;2.30;;
3487;SDS011;38546;48.170;11.724;2022-10-16T01:30:26;2.20;;;2.10;;
3487;SDS011;38546;48.170;11.724;2022-10-16T01:33:20;3.60;;;2.40;;
3487;SDS011;38546;48.170;11.724;2022-10-16T01:36:26;3.63;;;2.60;;
3487;SDS011;38546;48.170;11.724;2022-10-16T01:39:34;2.27;;;2.17;;
3487;SDS011;38546;48.170;11.724;2022-10-16T01:42:29;3.47;;;2.60;;
3487;SDS011;38546;48.170;11.724;2022-10-16T01:45:41;2.30;;;2.13;;
3487;SDS011;38546;48.170;11.724;2022-10-16T01:48:33;3.60;;;2.03;;
3487;SDS011;38546;48.170;11.724;2022-10-16T01:51:24;2.37;;;2.20;;
3487;SDS011;38546;48.170;11.724;2022-10-16T01:54:14;2.37;;;2.27;;
3487;SDS011;38546;48.170;11.724;2022-10-16T01:57:06;2.57;;;2.37;;
3487;SDS011;38546;48.170;11.724;2022-10-16T01:59:58;2.80;;;2.60;;
3487;SDS011;38546;48.170;11.724;2022-10-16T02:02:56;2.40;;;2.30;;
3487;SDS011;38546;48.170;11.724;2022-10-16T02:05:54;2.50;;;2.40;;
3487;SDS011;38546;48.170;11.724;2022-10-16T02:08:45;3.53;;;2.53;;
3487;SDS011;38546;48.170;11.724;2022-10-16T02:11:35;2.23;;;2.10;;
3487;SDS011;38546;48.170;11.724;2022-10-16T02:14:25;2.43;;;2.23;;
3487;SDS011;38546;48.170;11.724;2022-10-16T02:17:16;2.10;;;2.00;;
3487;SDS011;38546;48.170;11.724;2022-10-16T02:20:06;3.07;;;2.23;;
3487;SDS011;38546;48.170;11.724;2022-10-16T02:22:56;4.20;;;2.13;;
3487;SDS011;38546;48.170;11.724;2022-10-16T02:25:47;2.30;;;2.13;;
3487;SDS011;38546;48.170;11.724;2022-10-16T02:28:40;2.53;;;2.03;;
3487;SDS011;38546;48.170;11.724;2022-10-16T02:31:35;3.03;;;2.13;;
3487;SDS011;38546;48.170;11.724;2022-10-16T02:34:30;2.50;;;2.40;;
3487;SDS011;38546;48.170;11.724;2022-10-16T02:37:21;2.63;;;2.53;;
3487;SDS011;38546;48.170;11.724;2022-10-16T02:40:11;1.97;;;1.87;;
3487;SDS011;38546;48.170;11.724;2022-10-16T02:43:02;3.73;;;3.43;;
3487;SDS011;38546;48.170;11.724;2022-10-16T02:45:53;2.20;;;2.10;;
3487;SDS011;38546;48.170;11.724;2022-10-16T02:48:42;2.23;;;2.03;;
3487;SDS011;38546;48.170;11.724;2022-10-16T02:51:31;1.73;;;1.63;;
3487;SDS011;38546;48.170;11.724;2022-10-16T02:54:21;2.70;;;2.50;;
3487;SDS011;38546;48.170;11.724;2022-10-16T02:57:11;1.90;;;1.80;;
3487;SDS011;38546;48.170;11.724;2022-10-16T03:00:00;2.10;;;2.00;;
3487;SDS011;38546;48.170;11.724;2022-10-16T03:02:53;1.80;;;1.70;;
3487;SDS011;38546;48.170;11.724;2022-10-16T03:05:43;1.80;;;1.70;;
3487;SDS011;38546;48.170;11.724;2022-10-16T03:08:34;2.07;;;1.83;;
3487;SDS011;38546;48.170;11.724;2022-10-16T03:11:23;1.70;;;1.60;;
3487;SDS011;38546;48.170;11.724;2022-10-16T03:14:12;1.93;;;1.83;;
3487;SDS011;38546;48.170;11.724;2022-10-16T03:17:01;2.57;;;2.20;;
3487;SDS011;38546;48.170;11.724;2022-10-16T03:19:51;2.30;;;2.10;;
3487;SDS011;38546;48.170;11.724;2022-10-16T03:22:40;2.20;;;2.00;;
3487;SDS011;38546;48.170;11.724;2022-10-16T03:25:29;2.57;;;2.47;;
3487;SDS011;38546;48.170;11.724;2022-10-16T03:28:18;1.90;;;1.80;;
3487;SDS011;38546;48.170;11.724;2022-10-16T03:31:07;2.60;;;2.40;;
3487;SDS011;38546;48.170;11.724;2022-10-16T03:33:58;2.50;;;2.30;;
3487;SDS011;38546;48.170;11.724;2022-10-16T03:36:47;2.00;;;1.90;;
3487;SDS011;38546;48.170;11.724;2022-10-16T03:39:37;2.60;;;1.90;;
3487;SDS011;38546;48.170;11.724;2022-10-16T03:42:27;1.93;;;1.80;;
3487;SDS011;38546;48.170;11.724;2022-10-16T03:45:16;2.40;;;2.30;;
3487;SDS011;38546;48.170;11.724;2022-10-16T03:48:06;2.43;;;2.17;;
3487;SDS011;38546;48.170;11.724;2022-10-16T03:50:55;2.53;;;2.33;;
3487;SDS011;38546;48.170;11.724;2022-10-16T03:53:44;2.57;;;2.37;;
3487;SDS011;38546;48.170;11.724;2022-10-16T03:56:34;1.97;;;1.77;;
3487;SDS011;38546;48.170;11.724;2022-10-16T03:59:23;2.13;;;1.93;;
3487;SDS011;38546;48.170;11.724;2022-10-16T04:02:12;2.60;;;2.20;;
3487;SDS011;38546;48.170;11.724;2022-10-16T04:05:02;2.43;;;2.23;;
3487;SDS011;38546;48.170;11.724;2022-10-16T04:07:52;2.80;;;2.60;;
3487;SDS011;38546;48.170;11.724;2022-10-16T04:10:42;1.90;;;1.80;;
3487;SDS011;38546;48.170;11.724;2022-10-16T04:13:32;2.53;;;2.30;;
3487;SDS011;38546;48.170;11.724;2022-10-16T04:16:22;2.17;;;2.07;;
3487;SDS011;38546;48.170;11.724;2022-10-16T04:19:12;2.37;;;2.20;;
3487;SDS011;38546;48.170;11.724;2022-10-16T04:22:02;2.30;;;2.20;;
3487;SDS011;38546;48.170;11.724;2022-10-16T04:24:51;2.00;;;1.90;;
3487;SDS011;38546;48.170;11.724;2022-10-16T04:27:40;2.53;;;2.33;;
3487;SDS011;38546;48.170;11.724;2022-10-16T04:30:29;1.93;;;1.80;;
3487;SDS011;38546;48.170;11.724;2022-10-16T04:33:19;2.37;;;2.23;;
3487;SDS011;38546;48.170;11.724;2022-10-16T04:36:09;2.53;;;2.33;;
3487;SDS011;38546;48.170;11.724;2022-10-16T04:38:59;2.27;;;2.10;;
3487;SDS011;38546;48.170;11.724;2022-10-16T04:41:49;2.20;;;2.10;;
3487;SDS011;38546;48.170;11.724;2022-10-16T04:44:38;2.50;;;2.40;;
3487;SDS011;38546;48.170;11.724;2022-10-16T04:47:28;2.80;;;2.53;;
3487;SDS011;38546;48.170;11.724;2022-10-16T04:50:17;1.90;;;1.80;;
3487;SDS011;38546;48.170;11.724;2022-10-16T04:53:07;2.33;;;2.03;;
3487;SDS011;38546;48.170;11.724;2022-10-16T04:55:57;2.10;;;2.00;;
3487;SDS011;38546;48.170;11.724;2022-10-16T04:58:46;2.60;;;2.40;;
3487;SDS011;38546;48.170;11.724;2022-10-16T05:01:37;2.00;;;1.90;;
3487;SDS011;38546;48.170;11.724;2022-10-16T05:04:26;2.20;;;2.03;;
3487;SDS011;38546;48.170;11.724;2022-10-16T05:07:15;2.63;;;2.00;;
3487;SDS011;38546;48.170;11.724;2022-10-16T05:10:05;3.13;;;2.80;;
3487;SDS011;38546;48.170;11.724;2022-10-16T05:12:54;2.27;;;2.10;;
3487;SDS011;38546;48.170;11.724;2022-10-16T05:15:48;2.47;;;2.37;;
3487;SDS011;38546;48.170;11.724;2022-10-16T05:18:38;6.03;;;2.23;;
3487;SDS011;38546;48.170;11.724;2022-10-16T05:21:27;2.20;;;2.10;;
3487;SDS011;38546;48.170;11.724;2022-10-16T05:24:17;2.50;;;2.30;;
3487;SDS011;38546;48.170;11.724;2022-10-16T05:27:07;2.20;;;2.10;;
3487;SDS011;38546;48.170;11.724;2022-10-16T05:29:56;2.40;;;2.20;;
3487;SDS011;38546;48.170;11.724;2022-10-16T05:32:46;2.80;;;2.40;;
3487;SDS011;38546;48.170;11.724;2022-10-16T05:35:37;2.70;;;2.50;;
3487;SDS011;38546;48.170;11.724;2022-10-16T05:38:26;3.30;;;2.67;;
3487;SDS011;38546;48.170;11.724;2022-10-16T05:41:16;2.60;;;2.43;;
3487;SDS011;38546;48.170;11.724;2022-10-16T05:44:09;2.20;;;2.10;;
3487;SDS011;38546;48.170;11.724;2022-10-16T05:47:00;2.50;;;2.30;;
3487;SDS011;38546;48.170;11.724;2022-10-16T05:49:50;2.10;;;2.00;;
3487;SDS011;38546;48.170;11.724;2022-10-16T05:52:40;2.43;;;2.23;;
3487;SDS011;38546;48.170;11.724;2022-10-16T05:55:29;2.87;;;2.20;;
3487;SDS011;38546;48.170;11.724;2022-10-16T05:58:18;2.53;;;2.23;;
3487;SDS011;38546;48.170;11.724;2022-10-16T06:01:10;2.20;;;2.10;;
3487;SDS011;38546;48.170;11.724;2022-10-16T06:04:03;2.33;;;2.13;;
3487;SDS011;38546;48.170;11.724;2022-10-16T06:06:52;6.17;;;2.70;;
3487;SDS011;38546;48.170;11.724;2022-10-16T06:09:41;3.27;;;2.97;;
3487;SDS011;38546;48.170;11.724;2022-10-16T06:12:39;2.43;;;2.20;;
3487;SDS011;38546;48.170;11.724;2022-10-16T06:15:28;2.63;;;2.43;;
3487;SDS011;38546;48.170;11.724;2022-10-16T06:18:18;5.20;;;2.93;;
3487;SDS011;38546;48.170;11.724;2022-10-16T06:21:07;2.57;;;2.30;;
3487;SDS011;38546;48.170;11.724;2022-10-16T06:24:04;2.97;;;2.70;;
3487;SDS011;38546;48.170;11.724;2022-10-16T06:26:53;3.70;;;2.87;;
3487;SDS011;38546;48.170;11.724;2022-10-16T06:29:42;2.73;;;2.50;;
3487;SDS011;38546;48.170;11.724;2022-10-16T06:32:33;3.20;;;2.70;;
3487;SDS011;38546;48.170;11.724;2022-10-16T06:35:23;2.63;;;2.43;;
3487;SDS011;38546;48.170;11.724;2022-10-16T06:38:12;3.00;;;2.80;;
3487;SDS011;38546;48.170;11.724;2022-10-16T06:41:01;2.83;;;2.63;;
3487;SDS011;38546;48.170;11.724;2022-10-16T06:43:50;2.67;;;2.50;;
3487;SDS011;38546;48.170;11.724;2022-10-16T06:46:40;1.93;;;1.83;;
3487;SDS011;38546;48.170;11.724;2022-10-16T06:49:29;3.23;;;2.20;;
3487;SDS011;38546;48.170;11.724;2022-10-16T06:52:18;3.67;;;2.90;;
3487;SDS011;38546;48.170;11.724;2022-10-16T06:55:08;2.93;;;2.73;;
3487;SDS011;38546;48.170;11.724;2022-10-16T06:57:57;2.90;;;2.60;;
3487;SDS011;38546;48.170;11.724;2022-10-16T07:00:46;2.40;;;2.23;;
3487;SDS011;38546;48.170;11.724;2022-10-16T07:03:37;2.60;;;2.40;;
3487;SDS011;38546;48.170;11.724;2022-10-16T07:06:30;2.77;;;2.60;;
3487;SDS011;38546;48.170;11.724;2022-10-16T07:09:21;2.57;;;2.37;;
3487;SDS011;38546;48.170;11.724;2022-10-16T07:12:11;2.77;;;2.57;;
3487;SDS011;38546;48.170;11.724;2022-10-16T07:15:00;3.60;;;3.27;;
3487;SDS011;38546;48.170;11.724;2022-10-16T07:17:50;2.47;;;2.27;;
3487;SDS011;38546;48.170;11.724;2022-10-16T07:20:39;2.60;;;2.50;;
3487;SDS011;38546;48.170;11.724;2022-10-16T07:23:28;2.70;;;2.50;;
3487;SDS011;38546;48.170;11.724;2022-10-16T07:26:18;2.50;;;2.30;;
3487;SDS011;38546;48.170;11.724;2022-10-16T07:29:12;3.30;;;3.00;;
3487;SDS011;38546;48.170;11.724;2022-10-16T07:32:04;2.53;;;2.27;;
3487;SDS011;38546;48.170;11.724;2022-10-16T07:34:53;2.83;;;2.60;;
3487;SDS011;38546;48.170;11.724;2022-10-16T07:37:44;5.60;;;2.83;;
3487;SDS011;38546;48.170;11.724;2022-10-16T07:40:36;3.27;;;2.27;;
3487;SDS011;38546;48.170;11.724;2022-10-16T07:43:25;6.53;;;2.57;;
3487;SDS011;38546;48.170;11.724;2022-10-16T07:46:15;3.23;;;3.03;;
3487;SDS011;38546;48.170;11.724;2022-10-16T07:49:06;2.57;;;2.37;;
3487;SDS011;38546;48.170;11.724;2022-10-16T07:51:56;2.43;;;2.23;;
3487;SDS011;38546;48.170;11.724;2022-10-16T07:54:45;3.17;;;2.30;;
3487;SDS011;38546;48.170;11.724;2022-10-16T07:57:34;2.47;;;2.27;;
3487;SDS011;38546;48.170;11.724;2022-10-16T08:00:24;2.67;;;2.17;;
3487;SDS011;38546;48.170;11.724;2022-10-16T08:03:13;2.80;;;2.60;;
3487;SDS011;38546;48.170;11.724;2022-10-16T08:06:03;2.70;;;2.60;;
3487;SDS011;38546;48.170;11.724;2022-10-16T08:08:53;2.40;;;2.20;;
3487;SDS011;38546;48.170;11.724;2022-10-16T08:11:44;2.43;;;2.23;;
3487;SDS011;38546;48.170;11.724;2022-10-16T08:14:33;1.87;;;1.77;;
3487;SDS011;38546;48.170;11.724;2022-10-16T08:17:22;2.50;;;2.30;;
3487;SDS011;38546;48.170;11.724;2022-10-16T08:20:12;2.30;;;2.20;;
3487;SDS011;38546;48.170;11.724;2022-10-16T08:23:01;2.00;;;1.90;;
3487;SDS011;38546;48.170;11.724;2022-10-16T08:25:51;2.10;;;2.00;;
3487;SDS011;38546;48.170;11.724;2022-10-16T08:28:45;2.23;;;2.13;;
3487;SDS011;38546;48.170;11.724;2022-10-16T08:31:39;2.57;;;2.40;;
3487;SDS011;38546;48.170;11.724;2022-10-16T08:34:28;2.70;;;2.33;;
3487;SDS011;38546;48.170;11.724;2022-10-16T08:37:18;2.90;;;2.70;;
3487;SDS011;38546;48.170;11.724;2022-10-16T08:40:15;2.57;;;2.37;;
3487;SDS011;38546;48.170;11.724;2022-10-16T08:43:19;2.57;;;2.37;;
3487;SDS011;38546;48.170;11.724;2022-10-16T08:46:44;2.50;;;2.17;;
3487;SDS011;38546;48.170;11.724;2022-10-16T08:50:11;2.30;;;2.20;;
3487;SDS011;38546;48.170;11.724;2022-10-16T08:53:10;2.70;;;2.50;;
3487;SDS011;38546;48.170;11.724;2022-10-16T08:56:20;2.47;;;2.27;;
3487;SDS011;38546;48.170;11.724;2022-10-16T08:59:10;4.40;;;2.20;;
3487;SDS011;38546;48.170;11.724;2022-10-16T09:02:00;2.10;;;2.00;;
3487;SDS011;38546;48.170;11.724;2022-10-16T09:04:53;2.60;;;2.13;;
3487;SDS011;38546;48.170;11.724;2022-10-16T09:10:42;2.50;;;2.33;;
3487;SDS011;38546;48.170;11.724;2022-10-16T09:13:50;3.80;;;3.50;;
3487;SDS011;38546;48.170;11.724;2022-10-16T09:19:48;2.60;;;2.40;;
3487;SDS011;38546;48.170;11.724;2022-10-16T09:23:17;3.17;;;2.37;;
3487;SDS011;38546;48.170;11.724;2022-10-16T09:26:14;3.67;;;2.67;;
3487;SDS011;38546;48.170;11.724;2022-10-16T09:29:12;2.73;;;2.00;;
3487;SDS011;38546;48.170;11.724;2022-10-16T09:32:10;2.40;;;2.10;;
3487;SDS011;38546;48.170;11.724;2022-10-16T09:35:17;2.30;;;2.20;;
3487;SDS011;38546;48.170;11.724;2022-10-16T09:38:26;2.63;;;2.43;;
3487;SDS011;38546;48.170;11.724;2022-10-16T09:41:21;2.97;;;1.80;;
3487;SDS011;38546;48.170;11.724;2022-10-16T09:44:30;2.23;;;2.13;;
3487;SDS011;38546;48.170;11.724;2022-10-16T09:47:21;1.97;;;1.87;;
3487;SDS011;38546;48.170;11.724;2022-10-16T09:54:26;2.50;;;2.30;;
3487;SDS011;38546;48.170;11.724;2022-10-16T09:57:16;1.90;;;1.80;;
3487;SDS011;38546;48.170;11.724;2022-10-16T10:00:08;1.70;;;1.60;;
3487;SDS011;38546;48.170;11.724;2022-10-16T10:02:59;2.47;;;1.97;;
3487;SDS011;38546;48.170;11.724;2022-10-16T10:05:48;1.83;;;1.73;;
3487;SDS011;38546;48.170;11.724;2022-10-16T10:08:40;2.53;;;2.33;;
3487;SDS011;38546;48.170;11.724;2022-10-16T10:11:40;2.03;;;1.90;;
3487;SDS011;38546;48.170;11.724;2022-10-16T10:14:41;2.07;;;1.97;;
3487;SDS011;38546;48.170;11.724;2022-10-16T10:17:44;2.50;;;2.30;;
3487;SDS011;38546;48.170;11.724;2022-10-16T10:20:40;1.80;;;1.70;;
3487;SDS011;38546;48.170;11.724;2022-10-16T10:23:30;2.50;;;2.40;;
3487;SDS011;38546;48.170;11.724;2022-10-16T10:26:21;2.30;;;2.20;;
3487;SDS011;38546;48.170;11.724;2022-10-16T10:29:28;1.70;;;1.63;;
3487;SDS011;38546;48.170;11.724;2022-10-16T10:42:44;2.00;;;1.90;;
3487;SDS011;38546;48.170;11.724;2022-10-16T10:45:43;2.10;;;1.93;;
3487;SDS011;38546;48.170;11.724;2022-10-16T10:48:54;2.80;;;2.60;;
3487;SDS011;38546;48.170;11.724;2022-10-16T10:54:39;4.53;;;2.20;;
3487;SDS011;38546;48.170;11.724;2022-10-16T10:57:58;3.43;;;1.60;;
3487;SDS011;38546;48.170;11.724;2022-10-16T11:01:09;1.57;;;1.47;;
3487;SDS011;38546;48.170;11.724;2022-10-16T11:04:23;1.97;;;1.87;;
3487;SDS011;38546;48.170;11.724;2022-10-16T11:09:15;2.00;;;1.90;;
3487;SDS011;38546;48.170;11.724;2022-10-16T11:12:18;1.83;;;1.73;;
3487;SDS011;38546;48.170;11.724;2022-10-16T11:15:34;2.50;;;1.80;;
3487;SDS011;38546;48.170;11.724;2022-10-16T11:18:37;1.50;;;1.40;;
3487;SDS011;38546;48.170;11.724;2022-10-16T11:22:38;1.43;;;1.30;;
3487;SDS011;38546;48.170;11.724;2022-10-16T11:25:56;1.27;;;1.27;;
3487;SDS011;38546;48.170;11.724;2022-10-16T11:28:53;1.93;;;1.83;;
3487;SDS011;38546;48.170;11.724;2022-10-16T11:31:48;1.70;;;1.60;;
3487;SDS011;38546;48.170;11.724;2022-10-16T11:34:55;2.03;;;1.70;;
3487;SDS011;38546;48.170;11.724;2022-10-16T11:37:51;1.70;;;1.70;;
3487;SDS011;38546;48.170;11.724;2022-10-16T11:40:45;1.70;;;1.70;;
3487;SDS011;38546;48.170;11.724;2022-10-16T11:43:40;1.40;;;1.40;;
3487;SDS011;38546;48.170;11.724;2022-10-16T11:46:38;2.17;;;1.60;;
3487;SDS011;38546;48.170;11.724;2022-10-16T11:49:33;1.77;;;1.67;;
3487;SDS011;38546;48.170;11.724;2022-10-16T11:52:25;1.10;;;1.10;;
3487;SDS011;38546;48.170;11.724;2022-10-16T11:57:08;1.60;;;1.50;;
3487;SDS011;38546;48.170;11.724;2022-10-16T12:04:34;1.67;;;1.63;;
3487;SDS011;38546;48.170;11.724;2022-10-16T12:07:40;2.50;;;2.30;;
3487;SDS011;38546;48.170;11.724;2022-10-16T12:14:37;1.37;;;1.37;;
3487;SDS011;38546;48.170;11.724;2022-10-16T12:17:37;1.70;;;1.60;;
3487;SDS011;38546;48.170;11.724;2022-10-16T12:20:36;1.77;;;1.67;;
3487;SDS011;38546;48.170;11.724;2022-10-16T12:23:26;2.10;;;1.83;;
3487;SDS011;38546;48.170;11.724;2022-10-16T12:26:29;2.83;;;2.43;;
3487;SDS011;38546;48.170;11.724;2022-10-16T12:29:45;1.70;;;1.70;;
3487;SDS011;38546;48.170;11.724;2022-10-16T12:32:37;1.63;;;1.53;;
3487;SDS011;38546;48.170;11.724;2022-10-16T12:35:30;2.60;;;2.50;;
3487;SDS011;38546;48.170;11.724;2022-10-16T12:38:45;1.30;;;1.30;;
3487;SDS011;38546;48.170;11.724;2022-10-16T12:41:40;2.20;;;1.60;;
3487;SDS011;38546;48.170;11.724;2022-10-16T12:44:35;1.10;;;1.10;;
3487;SDS011;38546;48.170;11.724;2022-10-16T12:50:52;6.77;;;1.67;;
3487;SDS011;38546;48.170;11.724;2022-10-16T12:53:41;2.60;;;1.27;;
3487;SDS011;38546;48.170;11.724;2022-10-16T12:56:40;1.10;;;0.90;;
3487;SDS011;38546;48.170;11.724;2022-10-16T13:01:11;1.20;;;1.10;;
3487;SDS011;38546;48.170;11.724;2022-10-16T13:13:37;1.57;;;1.50;;
3487;SDS011;38546;48.170;11.724;2022-10-16T13:17:22;1.63;;;1.40;;
3487;SDS011;38546;48.170;11.724;2022-10-16T13:20:36;2.63;;;2.30;;
3487;SDS011;38546;48.170;11.724;2022-10-16T13:25:37;1.50;;;1.40;;
3487;SDS011;38546;48.170;11.724;2022-10-16T13:28:49;1.20;;;1.20;;
3487;SDS011;38546;48.170;11.724;2022-10-16T13:31:39;1.23;;;1.13;;
3487;SDS011;38546;48.170;11.724;2022-10-16T13:34:30;1.60;;;1.50;;
3487;SDS011;38546;48.170;11.724;2022-10-16T13:37:20;1.30;;;1.30;;
3487;SDS011;38546;48.170;11.724;2022-10-16T13:40:22;2.07;;;1.60;;
3487;SDS011;38546;48.170;11.724;2022-10-16T13:43:13;1.73;;;1.63;;
3487;SDS011;38546;48.170;11.724;2022-10-16T13:46:03;1.10;;;1.10;;
3487;SDS011;38546;48.170;11.724;2022-10-16T13:49:03;1.40;;;1.30;;
3487;SDS011;38546;48.170;11.724;2022-10-16T13:52:00;1.30;;;1.20;;
3487;SDS011;38546;48.170;11.724;2022-10-16T13:54:49;1.07;;;1.07;;
3487;SDS011;38546;48.170;11.724;2022-10-16T13:57:40;1.40;;;1.30;;
3487;SDS011;38546;48.170;11.724;2022-10-16T14:00:30;1.20;;;1.20;;
3487;SDS011;38546;48.170;11.724;2022-10-16T14:03:20;2.77;;;1.60;;
3487;SDS011;38546;48.170;11.724;2022-10-16T14:06:12;1.33;;;1.33;;
3487;SDS011;38546;48.170;11.724;2022-10-16T14:09:21;1.40;;;1.40;;
3487;SDS011;38546;48.170;11.724;2022-10-16T14:12:18;1.70;;;1.60;;
3487;SDS011;38546;48.170;11.724;2022-10-16T14:15:15;5.03;;;1.47;;
3487;SDS011;38546;48.170;11.724;2022-10-16T14:18:07;1.87;;;1.77;;
3487;SDS011;38546;48.170;11.724;2022-10-16T14:21:14;1.40;;;1.40;;
3487;SDS011;38546;48.170;11.724;2022-10-16T14:24:12;1.90;;;1.67;;
3487;SDS011;38546;48.170;11.724;2022-10-16T14:27:28;1.70;;;1.67;;
3487;SDS011;38546;48.170;11.724;2022-10-16T14:30:28;1.87;;;1.77;;
3487;SDS011;38546;48.170;11.724;2022-10-16T14:33:31;3.07;;;2.00;;
3487;SDS011;38546;48.170;11.724;2022-10-16T14:36:22;1.90;;;1.80;;
3487;SDS011;38546;48.170;11.724;2022-10-16T14:39:17;1.70;;;1.60;;
3487;SDS011;38546;48.170;11.724;2022-10-16T14:42:14;1.47;;;1.40;;
3487;SDS011;38546;48.170;11.724;2022-10-16T14:45:08;1.23;;;1.23;;
3487;SDS011;38546;48.170;11.724;2022-10-16T14:48:00;2.13;;;1.60;;
3487;SDS011;38546;48.170;11.724;2022-10-16T14:50:55;1.73;;;1.63;;
3487;SDS011;38546;48.170;11.724;2022-10-16T14:53:45;1.47;;;1.47;;
3487;SDS011;38546;48.170;11.724;2022-10-16T14:56:42;1.73;;;1.27;;
3487;SDS011;38546;48.170;11.724;2022-10-16T14:59:41;1.13;;;1.13;;
3487;SDS011;38546;48.170;11.724;2022-10-16T15:02:34;1.53;;;1.47;;
3487;SDS011;38546;48.170;11.724;2022-10-16T15:05:27;1.07;;;1.07;;
3487;SDS011;38546;48.170;11.724;2022-10-16T15:08:16;1.70;;;1.60;;
3487;SDS011;38546;48.170;11.724;2022-10-16T15:11:07;1.60;;;1.60;;
3487;SDS011;38546;48.170;11.724;2022-10-16T15:14:05;1.53;;;1.43;;
3487;SDS011;38546;48.170;11.724;2022-10-16T15:16:54;1.63;;;1.53;;
3487;SDS011;38546;48.170;11.724;2022-10-16T15:19:43;1.33;;;1.30;;
3487;SDS011;38546;48.170;11.724;2022-10-16T15:22:32;4.20;;;2.37;;
3487;SDS011;38546;48.170;11.724;2022-10-16T15:25:38;2.20;;;2.00;;
3487;SDS011;38546;48.170;11.724;2022-10-16T15:28:42;1.70;;;1.60;;
3487;SDS011;38546;48.170;11.724;2022-10-16T15:31:32;1.50;;;1.40;;
3487;SDS011;38546;48.170;11.724;2022-10-16T15:34:21;3.13;;;1.70;;
3487;SDS011;38546;48.170;11.724;2022-10-16T15:37:11;1.57;;;1.47;;
3487;SDS011;38546;48.170;11.724;2022-10-16T15:40:02;1.53;;;1.43;;
3487;SDS011;38546;48.170;11.724;2022-10-16T15:42:51;1.50;;;1.50;;
3487;SDS011;38546;48.170;11.724;2022-10-16T15:45:41;1.57;;;1.47;;
3487;SDS011;38546;48.170;11.724;2022-10-16T15:48:31;1.77;;;1.70;;
3487;SDS011;38546;48.170;11.724;2022-10-16T15:51:21;2.23;;;2.03;;
3487;SDS011;38546;48.170;11.724;2022-10-16T15:54:11;3.37;;;1.40;;
3487;SDS011;38546;48.170;11.724;2022-10-16T15:57:00;1.83;;;1.73;;
3487;SDS011;38546;48.170;11.724;2022-10-16T15:59:49;4.93;;;1.90;;
3487;SDS011;38546;48.170;11.724;2022-10-16T16:02:39;1.63;;;1.60;;
3487;SDS011;38546;48.170;11.724;2022-10-16T16:05:29;2.70;;;1.80;;
3487;SDS011;38546;48.170;11.724;2022-10-16T16:08:22;2.73;;;1.77;;
3487;SDS011;38546;48.170;11.724;2022-10-16T16:11:12;3.87;;;2.10;;
3487;SDS011;38546;48.170;11.724;2022-10-16T16:14:03;1.93;;;1.63;;
3487;SDS011;38546;48.170;11.724;2022-10-16T16:16:58;1.50;;;1.40;;
3487;SDS011;38546;48.170;11.724;2022-10-16T16:19:47;2.07;;;1.87;;
3487;SDS011;38546;48.170;11.724;2022-10-16T16:22:37;3.20;;;2.27;;
3487;SDS011;38546;48.170;11.724;2022-10-16T16:25:27;2.10;;;2.00;;
3487;SDS011;38546;48.170;11.724;2022-10-16T16:28:16;2.57;;;2.37;;
3487;SDS011;38546;48.170;11.724;2022-10-16T16:31:06;1.90;;;1.83;;
3487;SDS011;38546;48.170;11.724;2022-10-16T16:33:57;2.00;;;1.83;;
3487;SDS011;38546;48.170;11.724;2022-10-16T16:36:47;2.00;;;1.90;;
3487;SDS011;38546;48.170;11.724;2022-10-16T16:39:36;1.80;;;1.70;;
3487;SDS011;38546;48.170;11.724;2022-10-16T16:42:25;2.40;;;2.20;;
3487;SDS011;38546;48.170;11.724;2022-10-16T16:45:16;4.37;;;3.97;;
3487;SDS011;38546;48.170;11.724;2022-10-16T16:48:05;10.83;;;7.30;;
3487;SDS011;38546;48.170;11.724;2022-10-16T16:50:55;15.87;;;9.73;;
3487;SDS011;38546;48.170;11.724;2022-10-16T16:53:46;68.93;;;36.60;;
3487;SDS011;38546;48.170;11.724;2022-10-16T16:56:37;53.07;;;28.60;;
3487;SDS011;38546;48.170;11.724;2022-10-16T16:59:27;25.80;;;15.13;;
3487;SDS011;38546;48.170;11.724;2022-10-16T17:02:16;9.67;;;6.87;;
3487;SDS011;38546;48.170;11.724;2022-10-16T17:05:05;4.93;;;3.60;;
3487;SDS011;38546;48.170;11.724;2022-10-16T17:07:55;2.63;;;2.43;;
3487;SDS011;38546;48.170;11.724;2022-10-16T17:10:45;2.40;;;2.30;;
3487;SDS011;38546;48.170;11.724;2022-10-16T17:13:38;2.53;;;2.30;;
3487;SDS011;38546;48.170;11.724;2022-10-16T17:16:30;2.97;;;2.77;;
3487;SDS011;38546;48.170;11.724;2022-10-16T17:19:22;3.53;;;3.20;;
3487;SDS011;38546;48.170;11.724;2022-10-16T17:22:11;3.07;;;2.80;;
3487;SDS011;38546;48.170;11.724;2022-10-16T17:25:00;3.20;;;2.70;;
3487;SDS011;38546;48.170;11.724;2022-10-16T17:27:51;2.37;;;2.27;;
3487;SDS011;38546;48.170;11.724;2022-10-16T17:30:41;2.40;;;2.23;;
3487;SDS011;38546;48.170;11.724;2022-10-16T17:33:32;2.10;;;2.00;;
3487;SDS011;38546;48.170;11.724;2022-10-16T17:36:21;2.40;;;2.30;;
3487;SDS011;38546;48.170;11.724;2022-10-16T17:39:12;2.03;;;1.93;;
3487;SDS011;38546;48.170;11.724;2022-10-16T17:42:05;2.70;;;2.40;;
3487;SDS011;38546;48.170;11.724;2022-10-16T17:44:54;4.10;;;2.63;;
3487;SDS011;38546;48.170;11.724;2022-10-16T17:47:43;4.27;;;2.50;;
3487;SDS011;38546;48.170;11.724;2022-10-16T17:50:32;2.27;;;2.17;;
3487;SDS011;38546;48.170;11.724;2022-10-16T17:53:22;2.63;;;2.43;;
3487;SDS011;38546;48.170;11.724;2022-10-16T17:56:11;2.60;;;2.47;;
3487;SDS011;38546;48.170;11.724;2022-10-16T17:59:02;2.57;;;2.37;;
3487;SDS011;38546;48.170;11.724;2022-10-16T18:01:52;4.20;;;2.73;;
3487;SDS011;38546;48.170;11.724;2022-10-16T18:05:27;2.83;;;2.50;;
3487;SDS011;38546;48.170;11.724;2022-10-16T18:08:18;2.83;;;2.63;;
3487;SDS011;38546;48.170;11.724;2022-10-16T18:11:08;3.13;;;2.77;;
3487;SDS011;38546;48.170;11.724;2022-10-16T18:13:58;3.70;;;3.03;;
3487;SDS011;38546;48.170;11.724;2022-10-16T18:16:48;3.23;;;2.80;;
3487;SDS011;38546;48.170;11.724;2022-10-16T18:19:37;3.57;;;3.23;;
3487;SDS011;38546;48.170;11.724;2022-10-16T18:22:27;3.90;;;3.60;;
3487;SDS011;38546;48.170;11.724;2022-10-16T18:25:19;3.50;;;2.90;;
3487;SDS011;38546;48.170;11.724;2022-10-16T18:28:09;3.40;;;3.07;;